<?xml version="1.0" encoding="utf-8"?>
<gpx xmlns:xsi="http://www.w3.org/2001/XMLSchema-instance" xmlns:xsd="http://www.w3.org/2001/XMLSchema" version="1.1" creator="Shapelink.com" xmlns="http://www.topografix.com/GPX/1/1" xmlns:gpxtpx="http://www.garmin.com/xmlschemas/TrackPointExtension/v1">
  <metadata>
    <name>Övrigt 1.30 km, 2020-02-12</name>
    <desc></desc>
    <author><name>Marian Moron</name></author> 
    <time>2020-02-12T20:39:52Z</time>
  </metadata>
  <trk>
    <name>Övrigt 1.30 km, 2020-02-12</name>
    <trkseg>
      <trkpt lat="51.230163328453" lon="4.459092764511">
        <ele>0</ele>
        <time>2020-02-12T20:43:49Z</time>
      </trkpt>
      <trkpt lat="51.230703877184" lon="4.459283033641">
        <ele>0</ele>
        <time>2020-02-12T20:44:01Z</time>
      </trkpt>
      <trkpt lat="51.23116605515" lon="4.459483863965">
        <ele>0</ele>
        <time>2020-02-12T20:44:08Z</time>
      </trkpt>
      <trkpt lat="51.231621276139" lon="4.459663739539">
        <ele>3</ele>
        <time>2020-02-12T20:44:27Z</time>
      </trkpt>
      <trkpt lat="51.231757482014" lon="4.459638761477">
        <ele>6.4</ele>
        <time>2020-02-12T20:44:44Z</time>
      </trkpt>
      <trkpt lat="51.23181062326" lon="4.459571790096">
        <ele>5.8</ele>
        <time>2020-02-12T20:44:49Z</time>
      </trkpt>
      <trkpt lat="51.231842558299" lon="4.459577908883">
        <ele>6.2</ele>
        <time>2020-02-12T20:44:51Z</time>
      </trkpt>
      <trkpt lat="51.231866949628" lon="4.459608586637">
        <ele>6.2</ele>
        <time>2020-02-12T20:44:53Z</time>
      </trkpt>
      <trkpt lat="51.231875666804" lon="4.459851745556">
        <ele>7.8</ele>
        <time>2020-02-12T20:45:18Z</time>
      </trkpt>
      <trkpt lat="51.231914055906" lon="4.460305541622">
        <ele>5.6</ele>
        <time>2020-02-12T20:45:41Z</time>
      </trkpt>
      <trkpt lat="51.231914307363" lon="4.460330184408">
        <ele>5.6</ele>
        <time>2020-02-12T20:45:43Z</time>
      </trkpt>
      <trkpt lat="51.231930568249" lon="4.460399251264">
        <ele>5.6</ele>
        <time>2020-02-12T20:45:49Z</time>
      </trkpt>
      <trkpt lat="51.231938279597" lon="4.460515089122">
        <ele>5.2</ele>
        <time>2020-02-12T20:45:58Z</time>
      </trkpt>
      <trkpt lat="51.231891592414" lon="4.460560686658">
        <ele>5.4</ele>
        <time>2020-02-12T20:46:04Z</time>
      </trkpt>
      <trkpt lat="51.231882456143" lon="4.460698652732">
        <ele>6</ele>
        <time>2020-02-12T20:46:20Z</time>
      </trkpt>
      <trkpt lat="51.231881450315" lon="4.460739975499">
        <ele>5.8</ele>
        <time>2020-02-12T20:46:24Z</time>
      </trkpt>
      <trkpt lat="51.231882037048" lon="4.46108103501">
        <ele>2.8</ele>
        <time>2020-02-12T20:46:43Z</time>
      </trkpt>
      <trkpt lat="51.231896286278" lon="4.461188742425">
        <ele>1.4</ele>
        <time>2020-02-12T20:46:49Z</time>
      </trkpt>
      <trkpt lat="51.231871224397" lon="4.461339784263">
        <ele>0</ele>
        <time>2020-02-12T20:47:15Z</time>
      </trkpt>
      <trkpt lat="51.231792015442" lon="4.461404492531">
        <ele>0</ele>
        <time>2020-02-12T20:47:25Z</time>
      </trkpt>
      <trkpt lat="51.231652708264" lon="4.461568358676">
        <ele>0</ele>
        <time>2020-02-12T20:47:37Z</time>
      </trkpt>
      <trkpt lat="51.23139236645" lon="4.461707414397">
        <ele>0.6</ele>
        <time>2020-02-12T20:47:52Z</time>
      </trkpt>
      <trkpt lat="51.2313797936" lon="4.461749240078">
        <ele>0.8</ele>
        <time>2020-02-12T20:47:55Z</time>
      </trkpt>
      <trkpt lat="51.231359006488" lon="4.461801626953">
        <ele>1.2</ele>
        <time>2020-02-12T20:47:58Z</time>
      </trkpt>
      <trkpt lat="51.23135800066" lon="4.461858456235">
        <ele>1.2</ele>
        <time>2020-02-12T20:48:01Z</time>
      </trkpt>
      <trkpt lat="51.23136805894" lon="4.461887038514">
        <ele>1.2</ele>
        <time>2020-02-12T20:48:03Z</time>
      </trkpt>
      <trkpt lat="51.231344086706" lon="4.462213178243">
        <ele>1.2</ele>
        <time>2020-02-12T20:48:18Z</time>
      </trkpt>
      <trkpt lat="51.231397227952" lon="4.462674266562">
        <ele>3.6</ele>
        <time>2020-02-12T20:48:40Z</time>
      </trkpt>
      <trkpt lat="51.231363448895" lon="4.463055894469">
        <ele>0.2</ele>
        <time>2020-02-12T20:48:59Z</time>
      </trkpt>
      <trkpt lat="51.231190614117" lon="4.463128481723">
        <ele>0</ele>
        <time>2020-02-12T20:49:13Z</time>
      </trkpt>
      <trkpt lat="51.231123056003" lon="4.463341801078">
        <ele>4</ele>
        <time>2020-02-12T20:49:27Z</time>
      </trkpt>
      <trkpt lat="51.231099586683" lon="4.463354793023">
        <ele>5.2</ele>
        <time>2020-02-12T20:49:30Z</time>
      </trkpt>
      <trkpt lat="51.230853577918" lon="4.463340543793">
        <ele>2.2</ele>
        <time>2020-02-12T20:49:44Z</time>
      </trkpt>
      <trkpt lat="51.230489971096" lon="4.463345153838">
        <ele>21</ele>
        <time>2020-02-12T20:51:27Z</time>
      </trkpt>
      <trkpt lat="51.230366757166" lon="4.46346652375">
        <ele>17</ele>
        <time>2020-02-12T20:51:44Z</time>
      </trkpt>
      <trkpt lat="51.230221498839" lon="4.46313292413">
        <ele>1.2</ele>
        <time>2020-02-12T20:52:13Z</time>
      </trkpt>
      <trkpt lat="51.230152515802" lon="4.462713074759">
        <ele>0</ele>
        <time>2020-02-12T20:52:40Z</time>
      </trkpt>
      <trkpt lat="51.230124352618" lon="4.462676864951">
        <ele>0</ele>
        <time>2020-02-12T20:52:44Z</time>
      </trkpt>
      <trkpt lat="51.229888150676" lon="4.462223990894">
        <ele>0</ele>
        <time>2020-02-12T20:53:17Z</time>
      </trkpt>
      <trkpt lat="51.229843726606" lon="4.462062471681">
        <ele>0</ele>
        <time>2020-02-12T20:53:29Z</time>
      </trkpt>
      <trkpt lat="51.229784634211" lon="4.461899779002">
        <ele>0</ele>
        <time>2020-02-12T20:53:40Z</time>
      </trkpt>
      <trkpt lat="51.229711208767" lon="4.461280859506">
        <ele>0</ele>
        <time>2020-02-12T20:54:10Z</time>
      </trkpt>
      <trkpt lat="51.229679273728" lon="4.461211960288">
        <ele>0</ele>
        <time>2020-02-12T20:54:16Z</time>
      </trkpt>
      <trkpt lat="51.229588162475" lon="4.461018757493">
        <ele>1.8</ele>
        <time>2020-02-12T20:54:35Z</time>
      </trkpt>
      <trkpt lat="51.229481041793" lon="4.46076671376">
        <ele>5.4</ele>
        <time>2020-02-12T20:54:57Z</time>
      </trkpt>
      <trkpt lat="51.229351206162" lon="4.46052363866">
        <ele>0</ele>
        <time>2020-02-12T20:55:10Z</time>
      </trkpt>
      <trkpt lat="51.229182227058" lon="4.460570074386">
        <ele>0</ele>
        <time>2020-02-12T20:55:29Z</time>
      </trkpt>
      <trkpt lat="51.229000842742" lon="4.460575187345">
        <ele>4.8</ele>
        <time>2020-02-12T20:55:44Z</time>
      </trkpt>
      <trkpt lat="51.228847286334" lon="4.460019299737">
        <ele>6.6</ele>
        <time>2020-02-12T20:56:07Z</time>
      </trkpt>
      <trkpt lat="51.228635810997" lon="4.459386801563">
        <ele>5</ele>
        <time>2020-02-12T20:56:31Z</time>
      </trkpt>
      <trkpt lat="51.228572611471" lon="4.458691858234">
        <ele>2.4</ele>
        <time>2020-02-12T20:57:08Z</time>
      </trkpt>
      <trkpt lat="51.228573114385" lon="4.458644668137">
        <ele>2.4</ele>
        <time>2020-02-12T20:57:11Z</time>
      </trkpt>
      <trkpt lat="51.228592392755" lon="4.458377956079">
        <ele>4.4</ele>
        <time>2020-02-12T20:57:25Z</time>
      </trkpt>
      <trkpt lat="51.228603456863" lon="4.45829656783">
        <ele>4.2</ele>
        <time>2020-02-12T20:57:29Z</time>
      </trkpt>
      <trkpt lat="51.228811076526" lon="4.458201265627">
        <ele>10.8</ele>
        <time>2020-02-12T20:58:30Z</time>
      </trkpt>
      <trkpt lat="51.229020707845" lon="4.458206965319">
        <ele>15.4</ele>
        <time>2020-02-12T20:58:54Z</time>
      </trkpt>
      <trkpt lat="51.229464948545" lon="4.458046116658">
        <ele>15.6</ele>
        <time>2020-02-12T20:59:33Z</time>
      </trkpt>
      <trkpt lat="51.229796201233" lon="4.45786741455">
        <ele>12</ele>
        <time>2020-02-12T20:59:58Z</time>
      </trkpt>
      <trkpt lat="51.229927880882" lon="4.457697764894">
        <ele>1</ele>
        <time>2020-02-12T21:00:30Z</time>
      </trkpt>
      <trkpt lat="51.229918493154" lon="4.457799018246">
        <ele>0</ele>
        <time>2020-02-12T21:00:38Z</time>
      </trkpt>
      <trkpt lat="51.22974364672" lon="4.458006302633">
        <ele>0</ele>
        <time>2020-02-12T21:01:12Z</time>
      </trkpt>
    </trkseg>
  </trk>
</gpx>